sensor_id;sensor_type;location;lat;lon;timestamp;temperature;humidity
22986;DHT22;11659;51.092;7.080;2022-11-14T00:00:29;7.50;99.90
22986;DHT22;11659;51.092;7.080;2022-11-14T00:03:14;7.40;99.90
22986;DHT22;11659;51.092;7.080;2022-11-14T00:05:58;7.40;99.90
22986;DHT22;11659;51.092;7.080;2022-11-14T00:08:43;7.40;99.90
22986;DHT22;11659;51.092;7.080;2022-11-14T00:11:27;7.40;99.90
22986;DHT22;11659;51.092;7.080;2022-11-14T00:14:12;7.30;99.90
22986;DHT22;11659;51.092;7.080;2022-11-14T00:16:57;7.30;99.90
22986;DHT22;11659;51.092;7.080;2022-11-14T00:19:41;7.30;99.90
22986;DHT22;11659;51.092;7.080;2022-11-14T00:22:26;7.30;99.90
22986;DHT22;11659;51.092;7.080;2022-11-14T00:25:11;7.30;99.90
22986;DHT22;11659;51.092;7.080;2022-11-14T00:27:56;7.40;99.90
22986;DHT22;11659;51.092;7.080;2022-11-14T00:30:45;7.50;99.90
22986;DHT22;11659;51.092;7.080;2022-11-14T00:33:31;7.50;99.90
22986;DHT22;11659;51.092;7.080;2022-11-14T00:36:16;7.60;99.90
22986;DHT22;11659;51.092;7.080;2022-11-14T00:39:01;7.70;99.90
22986;DHT22;11659;51.092;7.080;2022-11-14T00:41:45;7.70;99.90
22986;DHT22;11659;51.092;7.080;2022-11-14T00:44:30;7.80;99.90
22986;DHT22;11659;51.092;7.080;2022-11-14T00:47:14;7.70;99.90
22986;DHT22;11659;51.092;7.080;2022-11-14T00:50:00;7.90;99.90
22986;DHT22;11659;51.092;7.080;2022-11-14T00:52:45;7.80;99.90
22986;DHT22;11659;51.092;7.080;2022-11-14T00:55:29;7.80;99.90
22986;DHT22;11659;51.092;7.080;2022-11-14T00:58:24;7.80;99.90
22986;DHT22;11659;51.092;7.080;2022-11-14T01:01:09;7.80;99.90
22986;DHT22;11659;51.092;7.080;2022-11-14T01:03:53;7.80;99.90
22986;DHT22;11659;51.092;7.080;2022-11-14T01:06:39;7.70;99.90
22986;DHT22;11659;51.092;7.080;2022-11-14T01:09:23;7.70;99.90
22986;DHT22;11659;51.092;7.080;2022-11-14T01:12:08;7.70;99.90
22986;DHT22;11659;51.092;7.080;2022-11-14T01:14:54;7.60;99.90
22986;DHT22;11659;51.092;7.080;2022-11-14T01:17:38;7.60;99.90
22986;DHT22;11659;51.092;7.080;2022-11-14T01:20:23;7.50;99.90
22986;DHT22;11659;51.092;7.080;2022-11-14T01:23:10;7.50;99.90
22986;DHT22;11659;51.092;7.080;2022-11-14T01:26:00;7.40;99.90
22986;DHT22;11659;51.092;7.080;2022-11-14T01:28:46;7.40;99.90
22986;DHT22;11659;51.092;7.080;2022-11-14T01:31:30;7.30;99.90
22986;DHT22;11659;51.092;7.080;2022-11-14T01:34:16;7.30;99.90
22986;DHT22;11659;51.092;7.080;2022-11-14T01:37:00;7.30;99.90
22986;DHT22;11659;51.092;7.080;2022-11-14T01:39:46;7.20;99.90
22986;DHT22;11659;51.092;7.080;2022-11-14T01:42:31;7.30;99.90
22986;DHT22;11659;51.092;7.080;2022-11-14T01:45:46;7.30;99.90
22986;DHT22;11659;51.092;7.080;2022-11-14T01:48:39;7.30;99.90
22986;DHT22;11659;51.092;7.080;2022-11-14T01:51:28;7.30;99.90
22986;DHT22;11659;51.092;7.080;2022-11-14T01:54:16;7.30;99.90
22986;DHT22;11659;51.092;7.080;2022-11-14T01:57:05;7.30;99.90
22986;DHT22;11659;51.092;7.080;2022-11-14T01:59:53;7.30;99.90
22986;DHT22;11659;51.092;7.080;2022-11-14T02:02:38;7.20;99.90
22986;DHT22;11659;51.092;7.080;2022-11-14T02:05:23;7.30;99.90
22986;DHT22;11659;51.092;7.080;2022-11-14T02:08:09;7.30;99.90
22986;DHT22;11659;51.092;7.080;2022-11-14T02:10:55;7.30;99.90
22986;DHT22;11659;51.092;7.080;2022-11-14T02:13:41;7.30;99.90
22986;DHT22;11659;51.092;7.080;2022-11-14T02:16:26;7.30;99.90
22986;DHT22;11659;51.092;7.080;2022-11-14T02:19:13;7.30;99.90
22986;DHT22;11659;51.092;7.080;2022-11-14T02:21:59;7.30;99.90
22986;DHT22;11659;51.092;7.080;2022-11-14T02:24:44;7.30;99.90
22986;DHT22;11659;51.092;7.080;2022-11-14T02:27:30;7.20;99.90
22986;DHT22;11659;51.092;7.080;2022-11-14T02:30:18;7.30;99.90
22986;DHT22;11659;51.092;7.080;2022-11-14T02:33:02;7.30;99.90
22986;DHT22;11659;51.092;7.080;2022-11-14T02:35:47;7.30;99.90
22986;DHT22;11659;51.092;7.080;2022-11-14T02:38:33;7.30;99.90
22986;DHT22;11659;51.092;7.080;2022-11-14T02:41:18;7.20;99.90
22986;DHT22;11659;51.092;7.080;2022-11-14T02:44:03;7.20;99.90
22986;DHT22;11659;51.092;7.080;2022-11-14T02:46:48;7.10;99.90
22986;DHT22;11659;51.092;7.080;2022-11-14T02:49:33;7.20;99.90
22986;DHT22;11659;51.092;7.080;2022-11-14T02:52:18;7.00;99.90
22986;DHT22;11659;51.092;7.080;2022-11-14T02:55:04;6.90;99.90
22986;DHT22;11659;51.092;7.080;2022-11-14T02:57:48;6.80;99.90
22986;DHT22;11659;51.092;7.080;2022-11-14T03:00:33;6.80;99.90
22986;DHT22;11659;51.092;7.080;2022-11-14T03:03:17;6.70;99.90
22986;DHT22;11659;51.092;7.080;2022-11-14T03:06:03;6.60;99.90
22986;DHT22;11659;51.092;7.080;2022-11-14T03:08:47;6.60;99.90
22986;DHT22;11659;51.092;7.080;2022-11-14T03:11:33;6.60;99.90
22986;DHT22;11659;51.092;7.080;2022-11-14T03:14:18;6.60;99.90
22986;DHT22;11659;51.092;7.080;2022-11-14T03:17:02;6.60;99.90
22986;DHT22;11659;51.092;7.080;2022-11-14T03:19:47;6.60;99.90
22986;DHT22;11659;51.092;7.080;2022-11-14T03:22:31;6.60;99.90
22986;DHT22;11659;51.092;7.080;2022-11-14T03:25:16;6.60;99.90
22986;DHT22;11659;51.092;7.080;2022-11-14T03:28:01;6.60;99.90
22986;DHT22;11659;51.092;7.080;2022-11-14T03:30:46;6.60;99.90
22986;DHT22;11659;51.092;7.080;2022-11-14T03:33:31;6.50;99.90
22986;DHT22;11659;51.092;7.080;2022-11-14T03:36:15;6.50;99.90
22986;DHT22;11659;51.092;7.080;2022-11-14T03:39:00;6.50;99.90
22986;DHT22;11659;51.092;7.080;2022-11-14T03:41:45;6.50;99.90
22986;DHT22;11659;51.092;7.080;2022-11-14T03:44:30;6.50;99.90
22986;DHT22;11659;51.092;7.080;2022-11-14T03:47:15;6.50;99.90
22986;DHT22;11659;51.092;7.080;2022-11-14T03:49:59;6.40;99.90
22986;DHT22;11659;51.092;7.080;2022-11-14T03:52:44;6.40;99.90
22986;DHT22;11659;51.092;7.080;2022-11-14T03:55:31;6.40;99.90
22986;DHT22;11659;51.092;7.080;2022-11-14T03:58:16;6.50;99.90
22986;DHT22;11659;51.092;7.080;2022-11-14T04:01:03;6.50;99.90
22986;DHT22;11659;51.092;7.080;2022-11-14T04:03:47;6.50;99.90
22986;DHT22;11659;51.092;7.080;2022-11-14T04:06:32;6.50;99.90
22986;DHT22;11659;51.092;7.080;2022-11-14T04:09:16;6.50;99.90
22986;DHT22;11659;51.092;7.080;2022-11-14T04:12:01;6.50;99.90
22986;DHT22;11659;51.092;7.080;2022-11-14T04:14:46;6.50;99.90
22986;DHT22;11659;51.092;7.080;2022-11-14T04:17:32;6.50;99.90
22986;DHT22;11659;51.092;7.080;2022-11-14T04:20:16;6.50;99.90
22986;DHT22;11659;51.092;7.080;2022-11-14T04:23:01;7.60;99.90
22986;DHT22;11659;51.092;7.080;2022-11-14T04:25:46;6.60;99.90
22986;DHT22;11659;51.092;7.080;2022-11-14T04:28:30;6.60;99.90
22986;DHT22;11659;51.092;7.080;2022-11-14T04:31:14;6.60;99.90
22986;DHT22;11659;51.092;7.080;2022-11-14T04:34:00;2.90;99.90
22986;DHT22;11659;51.092;7.080;2022-11-14T04:36:45;6.60;99.90
22986;DHT22;11659;51.092;7.080;2022-11-14T04:39:29;6.60;99.90
22986;DHT22;11659;51.092;7.080;2022-11-14T04:42:14;6.60;99.90
22986;DHT22;11659;51.092;7.080;2022-11-14T04:44:59;6.60;99.90
22986;DHT22;11659;51.092;7.080;2022-11-14T04:47:43;6.60;99.90
22986;DHT22;11659;51.092;7.080;2022-11-14T04:50:29;6.50;99.90
22986;DHT22;11659;51.092;7.080;2022-11-14T04:53:13;6.50;99.90
22986;DHT22;11659;51.092;7.080;2022-11-14T04:55:58;6.40;99.90
22986;DHT22;11659;51.092;7.080;2022-11-14T04:58:42;6.30;99.90
22986;DHT22;11659;51.092;7.080;2022-11-14T05:01:27;6.30;99.90
22986;DHT22;11659;51.092;7.080;2022-11-14T05:04:13;6.30;99.90
22986;DHT22;11659;51.092;7.080;2022-11-14T05:06:59;6.30;99.90
22986;DHT22;11659;51.092;7.080;2022-11-14T05:09:43;6.30;99.90
22986;DHT22;11659;51.092;7.080;2022-11-14T05:12:28;6.20;99.90
22986;DHT22;11659;51.092;7.080;2022-11-14T05:15:13;6.20;99.90
22986;DHT22;11659;51.092;7.080;2022-11-14T05:17:58;6.20;99.90
22986;DHT22;11659;51.092;7.080;2022-11-14T05:20:42;6.20;99.90
22986;DHT22;11659;51.092;7.080;2022-11-14T05:23:28;6.20;99.90
22986;DHT22;11659;51.092;7.080;2022-11-14T05:26:15;6.20;99.90
22986;DHT22;11659;51.092;7.080;2022-11-14T05:29:00;6.20;99.90
22986;DHT22;11659;51.092;7.080;2022-11-14T05:31:44;6.60;99.90
22986;DHT22;11659;51.092;7.080;2022-11-14T05:34:28;6.20;99.90
22986;DHT22;11659;51.092;7.080;2022-11-14T05:37:12;6.20;99.90
22986;DHT22;11659;51.092;7.080;2022-11-14T05:39:58;6.20;99.90
22986;DHT22;11659;51.092;7.080;2022-11-14T05:42:43;4.80;99.90
22986;DHT22;11659;51.092;7.080;2022-11-14T05:45:27;6.20;99.90
22986;DHT22;11659;51.092;7.080;2022-11-14T05:48:12;6.20;99.90
22986;DHT22;11659;51.092;7.080;2022-11-14T05:50:58;6.20;99.90
22986;DHT22;11659;51.092;7.080;2022-11-14T05:53:42;6.20;99.90
22986;DHT22;11659;51.092;7.080;2022-11-14T05:56:28;6.30;99.90
22986;DHT22;11659;51.092;7.080;2022-11-14T05:59:13;6.30;99.90
22986;DHT22;11659;51.092;7.080;2022-11-14T06:01:57;6.30;99.90
22986;DHT22;11659;51.092;7.080;2022-11-14T06:04:42;7.60;99.90
22986;DHT22;11659;51.092;7.080;2022-11-14T06:07:26;6.50;99.90
22986;DHT22;11659;51.092;7.080;2022-11-14T06:10:10;6.60;99.90
22986;DHT22;11659;51.092;7.080;2022-11-14T06:12:56;6.60;99.90
22986;DHT22;11659;51.092;7.080;2022-11-14T06:15:41;6.60;99.90
22986;DHT22;11659;51.092;7.080;2022-11-14T06:18:25;6.60;99.90
22986;DHT22;11659;51.092;7.080;2022-11-14T06:21:11;6.70;99.90
22986;DHT22;11659;51.092;7.080;2022-11-14T06:23:56;6.70;99.90
22986;DHT22;11659;51.092;7.080;2022-11-14T06:26:41;6.70;99.90
22986;DHT22;11659;51.092;7.080;2022-11-14T06:29:27;6.70;99.90
22986;DHT22;11659;51.092;7.080;2022-11-14T06:32:11;6.70;99.90
22986;DHT22;11659;51.092;7.080;2022-11-14T06:34:56;6.70;99.90
22986;DHT22;11659;51.092;7.080;2022-11-14T06:37:41;6.70;99.90
22986;DHT22;11659;51.092;7.080;2022-11-14T06:40:25;6.60;99.90
22986;DHT22;11659;51.092;7.080;2022-11-14T06:43:10;6.60;99.90
22986;DHT22;11659;51.092;7.080;2022-11-14T06:45:56;6.70;99.90
22986;DHT22;11659;51.092;7.080;2022-11-14T06:48:41;6.70;99.90
22986;DHT22;11659;51.092;7.080;2022-11-14T06:51:26;6.70;99.90
22986;DHT22;11659;51.092;7.080;2022-11-14T06:54:11;6.70;99.90
22986;DHT22;11659;51.092;7.080;2022-11-14T06:56:56;6.70;99.90
22986;DHT22;11659;51.092;7.080;2022-11-14T06:59:41;6.70;99.90
22986;DHT22;11659;51.092;7.080;2022-11-14T07:02:27;6.70;99.90
22986;DHT22;11659;51.092;7.080;2022-11-14T07:05:11;6.70;99.90
22986;DHT22;11659;51.092;7.080;2022-11-14T07:07:56;6.80;99.90
22986;DHT22;11659;51.092;7.080;2022-11-14T07:10:41;6.80;99.90
22986;DHT22;11659;51.092;7.080;2022-11-14T07:13:25;6.70;99.90
22986;DHT22;11659;51.092;7.080;2022-11-14T07:16:09;6.80;99.90
22986;DHT22;11659;51.092;7.080;2022-11-14T07:18:56;6.80;99.90
22986;DHT22;11659;51.092;7.080;2022-11-14T07:21:40;6.90;99.90
22986;DHT22;11659;51.092;7.080;2022-11-14T07:24:25;6.90;99.90
22986;DHT22;11659;51.092;7.080;2022-11-14T07:27:09;7.00;99.90
22986;DHT22;11659;51.092;7.080;2022-11-14T07:29:57;7.00;99.90
22986;DHT22;11659;51.092;7.080;2022-11-14T07:32:41;7.10;99.90
22986;DHT22;11659;51.092;7.080;2022-11-14T07:35:27;7.20;99.90
22986;DHT22;11659;51.092;7.080;2022-11-14T07:38:11;7.20;99.90
22986;DHT22;11659;51.092;7.080;2022-11-14T07:40:57;7.30;99.90
22986;DHT22;11659;51.092;7.080;2022-11-14T07:43:42;7.30;99.90
22986;DHT22;11659;51.092;7.080;2022-11-14T07:46:27;7.40;99.90
22986;DHT22;11659;51.092;7.080;2022-11-14T07:49:11;7.50;99.90
22986;DHT22;11659;51.092;7.080;2022-11-14T07:51:57;7.50;99.90
22986;DHT22;11659;51.092;7.080;2022-11-14T07:54:41;7.60;99.90
22986;DHT22;11659;51.092;7.080;2022-11-14T07:57:26;7.60;99.90
22986;DHT22;11659;51.092;7.080;2022-11-14T08:00:11;7.70;99.90
22986;DHT22;11659;51.092;7.080;2022-11-14T08:02:56;7.70;99.90
22986;DHT22;11659;51.092;7.080;2022-11-14T08:05:41;7.70;99.90
22986;DHT22;11659;51.092;7.080;2022-11-14T08:08:27;7.80;99.90
22986;DHT22;11659;51.092;7.080;2022-11-14T08:11:11;7.80;99.90
22986;DHT22;11659;51.092;7.080;2022-11-14T08:13:56;7.80;99.90
22986;DHT22;11659;51.092;7.080;2022-11-14T08:16:41;7.90;99.90
22986;DHT22;11659;51.092;7.080;2022-11-14T08:19:25;7.90;99.90
22986;DHT22;11659;51.092;7.080;2022-11-14T08:22:09;7.90;99.90
22986;DHT22;11659;51.092;7.080;2022-11-14T08:24:55;7.90;99.90
22986;DHT22;11659;51.092;7.080;2022-11-14T08:27:40;7.90;99.90
22986;DHT22;11659;51.092;7.080;2022-11-14T08:30:24;7.90;99.90
22986;DHT22;11659;51.092;7.080;2022-11-14T08:33:09;7.90;99.90
22986;DHT22;11659;51.092;7.080;2022-11-14T08:35:53;7.90;99.90
22986;DHT22;11659;51.092;7.080;2022-11-14T08:38:38;7.90;99.90
22986;DHT22;11659;51.092;7.080;2022-11-14T08:41:24;7.90;99.90
22986;DHT22;11659;51.092;7.080;2022-11-14T08:44:08;7.90;99.90
22986;DHT22;11659;51.092;7.080;2022-11-14T08:46:53;7.90;99.90
22986;DHT22;11659;51.092;7.080;2022-11-14T08:49:37;7.90;99.90
22986;DHT22;11659;51.092;7.080;2022-11-14T08:52:22;8.00;99.90
22986;DHT22;11659;51.092;7.080;2022-11-14T08:55:06;8.00;99.90
22986;DHT22;11659;51.092;7.080;2022-11-14T08:57:53;8.00;99.90
22986;DHT22;11659;51.092;7.080;2022-11-14T09:00:38;8.10;99.90
22986;DHT22;11659;51.092;7.080;2022-11-14T09:03:22;8.10;99.90
22986;DHT22;11659;51.092;7.080;2022-11-14T09:06:07;8.10;99.90
22986;DHT22;11659;51.092;7.080;2022-11-14T09:08:51;8.10;99.90
22986;DHT22;11659;51.092;7.080;2022-11-14T09:11:35;8.10;99.90
22986;DHT22;11659;51.092;7.080;2022-11-14T09:14:22;8.10;99.90
22986;DHT22;11659;51.092;7.080;2022-11-14T09:17:07;8.10;99.90
22986;DHT22;11659;51.092;7.080;2022-11-14T09:19:52;8.10;99.90
22986;DHT22;11659;51.092;7.080;2022-11-14T09:22:37;8.10;99.90
22986;DHT22;11659;51.092;7.080;2022-11-14T09:25:21;8.10;99.90
22986;DHT22;11659;51.092;7.080;2022-11-14T09:28:07;8.20;99.90
22986;DHT22;11659;51.092;7.080;2022-11-14T09:30:59;8.20;99.90
22986;DHT22;11659;51.092;7.080;2022-11-14T09:33:44;8.20;99.90
22986;DHT22;11659;51.092;7.080;2022-11-14T09:36:28;8.20;99.90
22986;DHT22;11659;51.092;7.080;2022-11-14T09:39:13;8.20;99.90
22986;DHT22;11659;51.092;7.080;2022-11-14T09:42:08;8.20;99.90
22986;DHT22;11659;51.092;7.080;2022-11-14T09:44:55;8.20;99.90
22986;DHT22;11659;51.092;7.080;2022-11-14T09:47:43;8.20;99.90
22986;DHT22;11659;51.092;7.080;2022-11-14T09:50:32;8.20;99.90
22986;DHT22;11659;51.092;7.080;2022-11-14T09:53:22;8.20;99.90
22986;DHT22;11659;51.092;7.080;2022-11-14T09:56:11;8.30;99.90
22986;DHT22;11659;51.092;7.080;2022-11-14T09:58:56;8.30;99.90
22986;DHT22;11659;51.092;7.080;2022-11-14T10:01:45;8.30;99.90
22986;DHT22;11659;51.092;7.080;2022-11-14T10:04:45;8.30;99.90
22986;DHT22;11659;51.092;7.080;2022-11-14T10:07:39;8.40;99.90
22986;DHT22;11659;51.092;7.080;2022-11-14T10:10:42;8.40;99.90
22986;DHT22;11659;51.092;7.080;2022-11-14T10:16:52;8.40;99.90
22986;DHT22;11659;51.092;7.080;2022-11-14T10:19:44;8.40;99.90
22986;DHT22;11659;51.092;7.080;2022-11-14T10:22:44;8.50;99.90
22986;DHT22;11659;51.092;7.080;2022-11-14T10:25:40;8.60;99.90
22986;DHT22;11659;51.092;7.080;2022-11-14T10:28:37;8.60;99.90
22986;DHT22;11659;51.092;7.080;2022-11-14T10:31:32;8.70;99.90
22986;DHT22;11659;51.092;7.080;2022-11-14T10:34:26;8.70;99.90
22986;DHT22;11659;51.092;7.080;2022-11-14T10:37:18;8.80;99.90
22986;DHT22;11659;51.092;7.080;2022-11-14T10:40:15;8.80;99.90
22986;DHT22;11659;51.092;7.080;2022-11-14T10:43:04;8.80;99.90
22986;DHT22;11659;51.092;7.080;2022-11-14T10:46:00;8.90;99.90
22986;DHT22;11659;51.092;7.080;2022-11-14T10:48:49;8.90;99.90
22986;DHT22;11659;51.092;7.080;2022-11-14T10:51:36;8.90;99.90
22986;DHT22;11659;51.092;7.080;2022-11-14T10:54:29;9.00;99.90
22986;DHT22;11659;51.092;7.080;2022-11-14T10:57:16;8.90;99.90
22986;DHT22;11659;51.092;7.080;2022-11-14T11:00:04;9.00;99.90
22986;DHT22;11659;51.092;7.080;2022-11-14T11:02:59;9.00;99.90
22986;DHT22;11659;51.092;7.080;2022-11-14T11:05:47;9.00;99.90
22986;DHT22;11659;51.092;7.080;2022-11-14T11:08:40;9.10;99.90
22986;DHT22;11659;51.092;7.080;2022-11-14T11:11:52;9.20;99.90
22986;DHT22;11659;51.092;7.080;2022-11-14T11:14:37;9.30;99.90
22986;DHT22;11659;51.092;7.080;2022-11-14T11:17:22;9.40;99.90
22986;DHT22;11659;51.092;7.080;2022-11-14T11:20:30;9.40;99.90
22986;DHT22;11659;51.092;7.080;2022-11-14T11:23:25;9.50;99.90
22986;DHT22;11659;51.092;7.080;2022-11-14T11:26:17;9.60;99.90
22986;DHT22;11659;51.092;7.080;2022-11-14T11:29:16;9.60;99.90
22986;DHT22;11659;51.092;7.080;2022-11-14T11:32:01;9.60;99.90
22986;DHT22;11659;51.092;7.080;2022-11-14T11:34:45;9.60;99.90
22986;DHT22;11659;51.092;7.080;2022-11-14T11:37:32;9.50;99.90
22986;DHT22;11659;51.092;7.080;2022-11-14T11:40:21;9.50;99.90
22986;DHT22;11659;51.092;7.080;2022-11-14T11:43:12;9.50;99.90
22986;DHT22;11659;51.092;7.080;2022-11-14T11:46:03;9.60;99.90
22986;DHT22;11659;51.092;7.080;2022-11-14T11:48:55;9.80;99.90
22986;DHT22;11659;51.092;7.080;2022-11-14T11:51:45;10.10;99.90
22986;DHT22;11659;51.092;7.080;2022-11-14T11:54:45;10.30;99.90
22986;DHT22;11659;51.092;7.080;2022-11-14T11:57:34;10.50;99.90
22986;DHT22;11659;51.092;7.080;2022-11-14T12:00:21;10.70;99.90
22986;DHT22;11659;51.092;7.080;2022-11-14T12:03:12;10.80;99.90
22986;DHT22;11659;51.092;7.080;2022-11-14T12:06:04;11.00;99.90
22986;DHT22;11659;51.092;7.080;2022-11-14T12:09:03;11.00;99.90
22986;DHT22;11659;51.092;7.080;2022-11-14T12:11:53;11.00;99.90
22986;DHT22;11659;51.092;7.080;2022-11-14T12:14:50;10.90;99.90
22986;DHT22;11659;51.092;7.080;2022-11-14T12:17:52;10.90;99.90
22986;DHT22;11659;51.092;7.080;2022-11-14T12:20:58;10.80;99.90
22986;DHT22;11659;51.092;7.080;2022-11-14T12:24:12;10.70;99.90
22986;DHT22;11659;51.092;7.080;2022-11-14T12:27:14;10.60;99.90
22986;DHT22;11659;51.092;7.080;2022-11-14T12:30:09;10.50;99.90
22986;DHT22;11659;51.092;7.080;2022-11-14T12:32:57;10.40;99.90
22986;DHT22;11659;51.092;7.080;2022-11-14T12:35:48;10.40;99.90
22986;DHT22;11659;51.092;7.080;2022-11-14T12:38:42;10.40;99.90
22986;DHT22;11659;51.092;7.080;2022-11-14T12:41:31;10.30;99.90
22986;DHT22;11659;51.092;7.080;2022-11-14T12:44:18;10.30;99.90
22986;DHT22;11659;51.092;7.080;2022-11-14T12:47:15;10.20;99.90
22986;DHT22;11659;51.092;7.080;2022-11-14T12:50:29;10.30;99.90
22986;DHT22;11659;51.092;7.080;2022-11-14T12:53:40;10.40;99.90
22986;DHT22;11659;51.092;7.080;2022-11-14T12:56:46;10.50;99.90
22986;DHT22;11659;51.092;7.080;2022-11-14T12:59:49;10.50;99.90
22986;DHT22;11659;51.092;7.080;2022-11-14T13:03:13;10.50;99.90
22986;DHT22;11659;51.092;7.080;2022-11-14T13:06:07;10.50;99.90
22986;DHT22;11659;51.092;7.080;2022-11-14T13:09:09;10.50;99.90
22986;DHT22;11659;51.092;7.080;2022-11-14T13:11:58;10.40;99.90
22986;DHT22;11659;51.092;7.080;2022-11-14T13:15:30;10.40;99.90
22986;DHT22;11659;51.092;7.080;2022-11-14T13:18:34;10.30;99.90
22986;DHT22;11659;51.092;7.080;2022-11-14T13:22:16;10.30;99.90
22986;DHT22;11659;51.092;7.080;2022-11-14T13:25:18;10.30;99.90
22986;DHT22;11659;51.092;7.080;2022-11-14T13:31:22;10.30;99.90
22986;DHT22;11659;51.092;7.080;2022-11-14T13:34:35;10.30;99.90
22986;DHT22;11659;51.092;7.080;2022-11-14T13:37:35;10.30;99.90
22986;DHT22;11659;51.092;7.080;2022-11-14T13:40:29;10.30;99.90
22986;DHT22;11659;51.092;7.080;2022-11-14T13:43:23;10.20;99.90
22986;DHT22;11659;51.092;7.080;2022-11-14T13:46:18;10.30;99.90
22986;DHT22;11659;51.092;7.080;2022-11-14T13:49:21;10.30;99.90
22986;DHT22;11659;51.092;7.080;2022-11-14T13:52:12;10.20;99.90
22986;DHT22;11659;51.092;7.080;2022-11-14T13:54:58;10.10;99.90
22986;DHT22;11659;51.092;7.080;2022-11-14T13:57:54;10.10;99.90
22986;DHT22;11659;51.092;7.080;2022-11-14T14:00:53;10.10;99.90
22986;DHT22;11659;51.092;7.080;2022-11-14T14:04:04;10.00;99.90
22986;DHT22;11659;51.092;7.080;2022-11-14T14:09:49;10.00;99.90
22986;DHT22;11659;51.092;7.080;2022-11-14T14:12:52;10.00;99.90
22986;DHT22;11659;51.092;7.080;2022-11-14T14:15:45;10.00;99.90
22986;DHT22;11659;51.092;7.080;2022-11-14T14:18:43;9.90;99.90
22986;DHT22;11659;51.092;7.080;2022-11-14T14:21:35;9.90;99.90
22986;DHT22;11659;51.092;7.080;2022-11-14T14:24:40;9.90;99.90
22986;DHT22;11659;51.092;7.080;2022-11-14T14:27:35;9.90;99.90
22986;DHT22;11659;51.092;7.080;2022-11-14T14:30:22;9.90;99.90
22986;DHT22;11659;51.092;7.080;2022-11-14T14:33:11;9.90;99.90
22986;DHT22;11659;51.092;7.080;2022-11-14T14:35:56;9.90;99.90
22986;DHT22;11659;51.092;7.080;2022-11-14T14:38:41;9.90;99.90
22986;DHT22;11659;51.092;7.080;2022-11-14T14:41:30;9.90;99.90
22986;DHT22;11659;51.092;7.080;2022-11-14T14:44:24;9.90;99.90
22986;DHT22;11659;51.092;7.080;2022-11-14T14:47:16;9.90;99.90
22986;DHT22;11659;51.092;7.080;2022-11-14T14:50:03;9.90;99.90
22986;DHT22;11659;51.092;7.080;2022-11-14T14:52:55;9.80;99.90
22986;DHT22;11659;51.092;7.080;2022-11-14T14:55:39;9.80;99.90
22986;DHT22;11659;51.092;7.080;2022-11-14T14:58:25;9.80;99.90
22986;DHT22;11659;51.092;7.080;2022-11-14T15:01:12;9.80;99.90
22986;DHT22;11659;51.092;7.080;2022-11-14T15:04:01;9.70;99.90
22986;DHT22;11659;51.092;7.080;2022-11-14T15:06:47;9.80;99.90
22986;DHT22;11659;51.092;7.080;2022-11-14T15:09:32;9.70;99.90
22986;DHT22;11659;51.092;7.080;2022-11-14T15:12:17;9.70;99.90
22986;DHT22;11659;51.092;7.080;2022-11-14T15:15:02;9.70;99.90
22986;DHT22;11659;51.092;7.080;2022-11-14T15:17:47;9.70;99.90
22986;DHT22;11659;51.092;7.080;2022-11-14T15:20:34;9.60;99.90
22986;DHT22;11659;51.092;7.080;2022-11-14T15:23:19;9.60;99.90
22986;DHT22;11659;51.092;7.080;2022-11-14T15:26:11;9.60;99.90
22986;DHT22;11659;51.092;7.080;2022-11-14T15:29:04;9.50;99.90
22986;DHT22;11659;51.092;7.080;2022-11-14T15:31:51;9.50;99.90
22986;DHT22;11659;51.092;7.080;2022-11-14T15:34:38;9.50;99.90
22986;DHT22;11659;51.092;7.080;2022-11-14T15:37:24;9.50;99.90
22986;DHT22;11659;51.092;7.080;2022-11-14T15:40:15;9.50;99.90
22986;DHT22;11659;51.092;7.080;2022-11-14T15:43:36;9.40;99.90
22986;DHT22;11659;51.092;7.080;2022-11-14T15:46:39;9.40;99.90
22986;DHT22;11659;51.092;7.080;2022-11-14T15:49:25;9.40;99.90
22986;DHT22;11659;51.092;7.080;2022-11-14T15:52:17;9.40;99.90
22986;DHT22;11659;51.092;7.080;2022-11-14T15:55:11;9.40;99.90
22986;DHT22;11659;51.092;7.080;2022-11-14T15:57:55;9.40;99.90
22986;DHT22;11659;51.092;7.080;2022-11-14T16:00:44;9.30;99.90
22986;DHT22;11659;51.092;7.080;2022-11-14T16:03:29;9.40;99.90
22986;DHT22;11659;51.092;7.080;2022-11-14T16:06:13;9.40;99.90
22986;DHT22;11659;51.092;7.080;2022-11-14T16:08:58;9.40;99.90
22986;DHT22;11659;51.092;7.080;2022-11-14T16:11:43;9.40;99.90
22986;DHT22;11659;51.092;7.080;2022-11-14T16:14:28;9.40;99.90
22986;DHT22;11659;51.092;7.080;2022-11-14T16:17:13;9.40;99.90
22986;DHT22;11659;51.092;7.080;2022-11-14T16:19:59;9.40;99.90
22986;DHT22;11659;51.092;7.080;2022-11-14T16:22:43;9.40;99.90
22986;DHT22;11659;51.092;7.080;2022-11-14T16:25:29;9.40;99.90
22986;DHT22;11659;51.092;7.080;2022-11-14T16:28:15;9.40;99.90
22986;DHT22;11659;51.092;7.080;2022-11-14T16:30:59;9.40;99.90
22986;DHT22;11659;51.092;7.080;2022-11-14T16:33:44;9.40;99.90
22986;DHT22;11659;51.092;7.080;2022-11-14T16:36:28;9.40;99.90
22986;DHT22;11659;51.092;7.080;2022-11-14T16:39:12;9.40;99.90
22986;DHT22;11659;51.092;7.080;2022-11-14T16:41:59;9.40;99.90
22986;DHT22;11659;51.092;7.080;2022-11-14T16:44:46;9.40;99.90
22986;DHT22;11659;51.092;7.080;2022-11-14T16:47:30;9.40;99.90
22986;DHT22;11659;51.092;7.080;2022-11-14T16:50:18;9.50;99.90
22986;DHT22;11659;51.092;7.080;2022-11-14T16:53:03;9.50;99.90
22986;DHT22;11659;51.092;7.080;2022-11-14T16:55:47;9.50;99.90
22986;DHT22;11659;51.092;7.080;2022-11-14T16:58:31;9.50;99.90
22986;DHT22;11659;51.092;7.080;2022-11-14T17:01:17;9.50;99.90
22986;DHT22;11659;51.092;7.080;2022-11-14T17:04:02;9.60;99.90
22986;DHT22;11659;51.092;7.080;2022-11-14T17:06:47;9.50;99.90
22986;DHT22;11659;51.092;7.080;2022-11-14T17:09:31;9.50;99.90
22986;DHT22;11659;51.092;7.080;2022-11-14T17:12:16;9.50;99.90
22986;DHT22;11659;51.092;7.080;2022-11-14T17:15:00;9.60;99.90
22986;DHT22;11659;51.092;7.080;2022-11-14T17:17:46;9.60;99.90
22986;DHT22;11659;51.092;7.080;2022-11-14T17:20:33;9.60;99.90
22986;DHT22;11659;51.092;7.080;2022-11-14T17:23:18;9.50;99.90
22986;DHT22;11659;51.092;7.080;2022-11-14T17:26:03;9.50;99.90
22986;DHT22;11659;51.092;7.080;2022-11-14T17:28:48;9.50;99.90
22986;DHT22;11659;51.092;7.080;2022-11-14T17:31:34;9.50;99.90
22986;DHT22;11659;51.092;7.080;2022-11-14T17:34:20;9.40;99.90
22986;DHT22;11659;51.092;7.080;2022-11-14T17:37:04;9.40;99.90
22986;DHT22;11659;51.092;7.080;2022-11-14T17:39:49;9.40;99.90
22986;DHT22;11659;51.092;7.080;2022-11-14T17:42:33;9.40;99.90
22986;DHT22;11659;51.092;7.080;2022-11-14T17:45:17;9.50;99.90
22986;DHT22;11659;51.092;7.080;2022-11-14T17:48:04;8.80;99.90
22986;DHT22;11659;51.092;7.080;2022-11-14T17:50:50;9.30;99.90
22986;DHT22;11659;51.092;7.080;2022-11-14T17:53:34;9.30;99.90
22986;DHT22;11659;51.092;7.080;2022-11-14T17:56:20;9.30;99.90
22986;DHT22;11659;51.092;7.080;2022-11-14T17:59:05;9.30;99.90
22986;DHT22;11659;51.092;7.080;2022-11-14T18:01:50;9.30;99.90
22986;DHT22;11659;51.092;7.080;2022-11-14T18:04:34;9.20;99.90
22986;DHT22;11659;51.092;7.080;2022-11-14T18:07:20;9.20;99.90